< Typhoon 198621 1986 Season Typhoon 198623 >
Typhoon 198622 (GEORGIA)
General InformationTrack Information on Google MapsDetailed Wind InformationList of All Images || Disaster Info.ResourceGoogle EarthGE AnimationAtom FeedGeoJSON
Detalied Best Track (Time Zone = UTC)
Year Month Day Hour Lat. Long. Pressure (hPa) Wind (kt) Class Image Chart
1986 10 17 06 10.5 130.0 1000 0 2 Image Chart
1986 10 17 12 10.8 129.4 998 0 2 Image Chart
1986 10 17 18 11.1 128.8 994 0 2 Image Chart
1986 10 18 00 11.3 128.2 992 0 2 Image Chart
1986 10 18 06 11.6 127.4 992 45 3 Image Chart
1986 10 18 12 12.0 126.2 992 45 3 Image Chart
1986 10 18 18 12.4 125.0 994 40 3 Image Chart
1986 10 19 00 12.8 123.9 996 40 3 Image Chart
1986 10 19 06 13.0 122.7 996 40 3 Image Chart
1986 10 19 12 13.1 121.5 996 40 3 Image Chart
1986 10 19 18 13.2 120.0 994 40 3 Image Chart
1986 10 20 00 13.3 118.6 994 45 3 Image Chart
1986 10 20 06 13.6 117.2 996 45 3 Image Chart
1986 10 20 12 13.8 116.0 996 40 3 Image Chart
1986 10 20 18 14.1 114.7 994 45 3 Image Chart
1986 10 21 00 14.3 113.4 990 45 3 Image Chart
1986 10 21 06 14.6 112.4 985 45 3 Image Chart
1986 10 21 12 14.8 111.2 985 45 3 Image Chart
1986 10 21 18 15.1 110.0 985 45 3 Image Chart
1986 10 22 00 15.3 108.8 990 45 3 Image Chart
1986 10 22 06 15.6 107.6 996 35 3 Image Chart
1986 10 22 12 16.0 106.5 1000 0 2 Image Chart
1986 10 22 18 16.2 105.2 1004 0 2 Image Chart
1986 10 23 00 16.4 104.0 1006 0 2 Image Chart
1986 10 23 06 16.6 102.5 1006 0 2 Image Chart
Japan Meteorological Agency Best Track Data | Correction Date : 1992-10-21
< Typhoon 198621 1986 Season Typhoon 198623 >

Help